Terminal Aerodrome Forecast
Issued by NWS

Current Version | Previous Version | Graphics & Text | Print | Product List | Glossary On
Versions: 1 2 3 4 5 6 7 8 9 10 11 12
000
FTUS41 KRNK 250552
TAFLWB
TAF
KLWB 250552Z 2506/2606 00000KT P6SM SCT050 BKN250
     FM250800 00000KT 5SM BR SCT050 BKN250
      TEMPO 2511/2513 1/2SM FG VV001
     FM251330 29008G16KT P6SM SCT050
     FM252300 00000KT P6SM FEW050=

USA.gov is the U.S. government's official web portal to all federal, state and local government web resources and services.